Time;durP1;ratioP1;P1;durP2;ratioP2;P2;SDS_P1;SDS_P2;PMS_P1;PMS_P2;Temp;Humidity;BMP_temperature;BMP_pressure;BME280_temperature;BME280_humidity;BME280_pressure;Samples;Min_cycle;Max_cycle;Signal;HPM_P1;HPM_P2
2022/07/22 00:01:33;;;;;;;11.27;10.10;;;17.10;91.60;;;;;;4981556;28;20418;-72
2022/07/22 00:04:01;;;;;;;11.45;10.35;;;17.00;91.50;;;;;;4986500;28;20430;-72
2022/07/22 00:06:28;;;;;;;11.13;10.02;;;17.00;91.70;;;;;;4986060;28;20990;-72
2022/07/22 00:08:55;;;;;;;11.20;9.77;;;17.00;91.50;;;;;;4986297;28;20422;-72
2022/07/22 00:11:23;;;;;;;10.35;9.35;;;17.00;91.60;;;;;;4983871;28;20422;-71
2022/07/22 00:13:51;;;;;;;10.23;9.30;;;17.00;91.70;;;;;;4986708;28;20436;-71
2022/07/22 00:16:17;;;;;;;10.35;9.38;;;17.00;91.60;;;;;;4986298;28;20434;-72
2022/07/22 00:18:44;;;;;;;9.10;8.30;;;17.00;91.60;;;;;;4984806;28;20513;-72
2022/07/22 00:21:11;;;;;;;9.45;8.55;;;17.10;91.60;;;;;;4963397;28;20559;-72
2022/07/22 00:23:38;;;;;;;8.00;7.30;;;17.00;91.60;;;;;;4985605;28;20845;-72
2022/07/22 00:26:05;;;;;;;9.35;7.50;;;17.10;91.50;;;;;;4986371;28;20428;-71
2022/07/22 00:28:33;;;;;;;10.52;7.22;;;17.10;90.90;;;;;;4986134;28;20497;-72
2022/07/22 00:31:00;;;;;;;7.87;6.80;;;17.10;90.90;;;;;;4988599;28;20842;-72
2022/07/22 00:33:27;;;;;;;7.47;6.30;;;17.10;90.90;;;;;;4990234;28;20505;-70
2022/07/22 00:35:53;;;;;;;7.80;6.17;;;17.10;90.50;;;;;;4988622;28;20601;-71
2022/07/22 00:38:21;;;;;;;8.43;6.53;;;17.00;90.50;;;;;;4990322;28;20604;-72
2022/07/22 00:40:47;;;;;;;6.72;5.90;;;17.00;90.50;;;;;;4988688;28;20418;-72
2022/07/22 00:43:14;;;;;;;8.20;6.13;;;17.00;90.70;;;;;;4989648;28;20446;-72
2022/07/22 00:45:42;;;;;;;7.60;5.40;;;17.00;90.50;;;;;;4989833;28;20422;-71
2022/07/22 00:48:09;;;;;;;7.25;5.50;;;17.10;90.50;;;;;;4989903;28;20445;-72
2022/07/22 00:50:36;;;;;;;6.20;5.60;;;17.00;90.70;;;;;;4987719;28;20513;-72
2022/07/22 00:53:04;;;;;;;7.47;5.97;;;17.00;90.60;;;;;;4990152;28;21019;-72
2022/07/22 00:55:31;;;;;;;7.97;6.68;;;17.00;90.30;;;;;;4989550;28;20444;-72
2022/07/22 00:57:58;;;;;;;8.55;6.82;;;17.00;90.40;;;;;;4990411;28;20404;-71
2022/07/22 01:00:25;;;;;;;9.10;6.18;;;17.00;90.90;;;;;;4988436;28;20508;-73
2022/07/22 01:02:53;;;;;;;6.80;6.10;;;17.00;90.60;;;;;;4990057;28;20422;-72
2022/07/22 01:05:20;;;;;;;8.07;6.25;;;17.00;90.80;;;;;;4988340;28;20422;-72
2022/07/22 01:07:47;;;;;;;8.73;6.85;;;17.00;90.70;;;;;;4989802;28;20497;-72
2022/07/22 01:10:14;;;;;;;9.35;6.35;;;17.00;90.50;;;;;;4988726;28;20422;-72
2022/07/22 01:12:41;;;;;;;9.02;6.50;;;17.00;90.80;;;;;;4989656;28;20528;-72
2022/07/22 01:15:09;;;;;;;7.82;6.55;;;17.10;90.70;;;;;;5011392;23;20438;-74
2022/07/22 01:17:36;;;;;;;6.60;6.00;;;17.10;90.80;;;;;;5000236;28;20445;-73
2022/07/22 01:20:05;;;;;;;10.75;6.63;;;17.10;90.20;;;;;;5010560;28;20456;-73
2022/07/22 01:22:32;;;;;;;9.70;7.20;;;17.00;90.50;;;;;;5006457;28;20463;-73
2022/07/22 01:24:59;;;;;;;7.20;6.45;;;17.00;90.50;;;;;;4994753;28;20412;-74
2022/07/22 01:27:26;;;;;;;8.20;6.70;;;17.00;90.60;;;;;;5010854;28;20433;-74
2022/07/22 01:29:53;;;;;;;8.20;7.32;;;17.10;90.20;;;;;;5010676;28;20437;-74
2022/07/22 01:32:20;;;;;;;10.75;6.53;;;17.10;90.10;;;;;;5010689;28;20444;-74
2022/07/22 01:34:46;;;;;;;8.70;7.78;;;17.00;90.40;;;;;;5010126;28;20962;-74
2022/07/22 01:37:14;;;;;;;10.13;7.80;;;17.00;90.20;;;;;;5009521;28;20451;-74
2022/07/22 01:39:41;;;;;;;10.55;7.95;;;16.90;90.40;;;;;;5010417;28;20438;-74
2022/07/22 01:42:08;;;;;;;9.70;7.40;;;16.90;90.70;;;;;;5009087;28;20420;-74
2022/07/22 01:44:35;;;;;;;10.45;7.72;;;16.90;91.00;;;;;;5010011;28;20435;-74
2022/07/22 01:47:02;;;;;;;7.95;7.15;;;16.90;91.00;;;;;;5010364;28;20431;-74
2022/07/22 01:49:29;;;;;;;9.70;7.70;;;17.00;90.60;;;;;;5010322;28;20846;-74
2022/07/22 01:51:55;;;;;;;8.10;6.93;;;16.90;90.80;;;;;;5008923;28;20425;-74
2022/07/22 01:54:24;;;;;;;9.07;7.70;;;16.90;90.90;;;;;;5010328;28;20428;-74
2022/07/22 01:56:50;;;;;;;9.57;8.00;;;17.00;90.80;;;;;;5009622;28;20439;-74
2022/07/22 01:59:17;;;;;;;8.02;7.22;;;17.00;90.90;;;;;;5010550;28;20424;-74
2022/07/22 02:01:44;;;;;;;8.52;7.40;;;17.00;90.90;;;;;;5009272;28;20735;-74
2022/07/22 02:04:11;;;;;;;9.00;8.10;;;17.00;91.00;;;;;;4990650;28;20427;-74
2022/07/22 02:06:38;;;;;;;9.45;8.40;;;17.00;91.30;;;;;;4989755;28;20518;-74
2022/07/22 02:09:05;;;;;;;9.00;8.10;;;17.00;91.00;;;;;;4990598;28;20444;-73
2022/07/22 02:11:34;;;;;;;9.25;8.35;;;17.00;90.60;;;;;;4989773;28;20440;-74
2022/07/22 02:14:01;;;;;;;9.70;8.55;;;17.00;90.80;;;;;;4989961;28;20426;-74
2022/07/22 02:16:28;;;;;;;11.25;8.10;;;17.00;90.70;;;;;;4989977;28;20441;-74
2022/07/22 02:18:55;;;;;;;8.95;8.02;;;17.00;90.70;;;;;;4990441;28;20426;-74
2022/07/22 02:21:22;;;;;;;9.20;8.30;;;17.00;90.60;;;;;;4988859;28;20422;-74
2022/07/22 02:23:49;;;;;;;9.50;8.60;;;17.00;90.80;;;;;;4990269;28;20444;-74
2022/07/22 02:26:16;;;;;;;9.82;8.80;;;17.00;90.80;;;;;;4989589;28;20611;-74
2022/07/22 02:28:44;;;;;;;9.95;8.50;;;17.00;90.90;;;;;;4990042;28;20881;-74
2022/07/22 02:31:11;;;;;;;8.70;7.90;;;17.00;90.90;;;;;;4989508;28;20881;-73
2022/07/22 02:33:38;;;;;;;10.77;8.65;;;17.00;90.90;;;;;;4989934;28;20521;-73
2022/07/22 02:36:05;;;;;;;10.77;9.00;;;17.00;90.50;;;;;;4989161;28;20414;-74
2022/07/22 02:38:32;;;;;;;9.90;8.88;;;17.00;90.50;;;;;;4990482;28;20508;-74
2022/07/22 02:40:59;;;;;;;10.45;9.35;;;17.00;90.40;;;;;;4989211;28;20452;-74
2022/07/22 02:43:25;;;;;;;10.18;9.27;;;17.00;90.60;;;;;;4990038;28;20454;-74
2022/07/22 02:45:53;;;;;;;10.93;8.95;;;16.90;90.40;;;;;;4989605;28;20809;-74
2022/07/22 02:48:21;;;;;;;10.60;9.60;;;17.00;90.40;;;;;;4989918;28;20766;-73
2022/07/22 02:50:48;;;;;;;10.25;9.27;;;17.00;90.70;;;;;;4988769;28;20879;-74
2022/07/22 02:53:15;;;;;;;10.30;9.20;;;16.90;90.90;;;;;;4989892;28;20414;-73
2022/07/22 02:55:42;;;;;;;9.90;9.00;;;17.00;90.90;;;;;;4989631;28;20426;-72
2022/07/22 02:58:10;;;;;;;10.25;8.88;;;17.00;91.10;;;;;;4990004;28;20895;-73
2022/07/22 03:00:38;;;;;;;13.00;9.60;;;17.00;91.10;;;;;;4989095;28;20532;-74
2022/07/22 03:03:06;;;;;;;10.60;9.50;;;17.00;91.10;;;;;;4989677;28;20794;-74
2022/07/22 03:05:34;;;;;;;11.30;10.10;;;17.00;90.80;;;;;;4988575;28;20423;-74
2022/07/22 03:08:00;;;;;;;11.30;10.20;;;17.00;90.50;;;;;;4989638;28;20493;-74
2022/07/22 03:10:28;;;;;;;10.45;9.45;;;17.00;90.40;;;;;;4989534;28;20418;-74
2022/07/22 03:12:56;;;;;;;10.73;9.73;;;17.00;90.60;;;;;;4989751;28;20877;-74
2022/07/22 03:15:22;;;;;;;11.23;10.10;;;16.90;90.40;;;;;;4988863;28;20430;-74
2022/07/22 03:17:49;;;;;;;11.32;10.18;;;16.90;90.40;;;;;;4989547;28;20430;-74
2022/07/22 03:20:17;;;;;;;11.57;10.07;;;16.90;90.40;;;;;;4988039;28;20433;-73
2022/07/22 03:22:44;;;;;;;12.40;11.15;;;16.90;90.30;;;;;;4989757;28;20561;-74
2022/07/22 03:25:11;;;;;;;12.32;11.02;;;16.80;90.70;;;;;;4989095;28;20429;-74
2022/07/22 03:27:38;;;;;;;11.77;10.68;;;16.80;90.60;;;;;;4989612;28;20418;-74
2022/07/22 03:30:06;;;;;;;10.68;9.77;;;16.80;90.70;;;;;;4988844;28;20449;-74
2022/07/22 03:32:33;;;;;;;11.48;10.20;;;16.80;90.60;;;;;;4989547;28;20422;-74
2022/07/22 03:34:59;;;;;;;11.65;10.65;;;16.80;90.80;;;;;;4988520;28;20442;-74
2022/07/22 03:37:27;;;;;;;11.35;10.23;;;16.80;90.90;;;;;;4989287;28;20434;-74
2022/07/22 03:39:54;;;;;;;10.43;9.52;;;16.80;90.90;;;;;;4989484;28;20514;-74
2022/07/22 03:42:21;;;;;;;10.90;9.53;;;16.80;91.10;;;;;;4989601;28;20426;-74
2022/07/22 03:44:48;;;;;;;10.97;9.50;;;16.90;91.10;;;;;;4989008;28;20460;-74
2022/07/22 03:47:18;;;;;;;10.20;9.30;;;16.90;91.20;;;;;;4988949;28;20449;-74
2022/07/22 03:49:45;;;;;;;10.70;9.60;;;16.90;91.30;;;;;;4988831;28;20422;-73
2022/07/22 03:52:12;;;;;;;10.60;9.60;;;17.00;91.20;;;;;;4988034;28;20448;-74
2022/07/22 03:54:41;;;;;;;10.10;9.20;;;17.00;90.50;;;;;;4988566;28;20534;-74
2022/07/22 03:57:08;;;;;;;9.98;8.98;;;16.90;90.20;;;;;;4988411;28;20438;-74
2022/07/22 03:59:35;;;;;;;9.13;8.23;;;17.00;90.40;;;;;;4988899;28;20413;-73
2022/07/22 04:02:02;;;;;;;10.10;9.10;;;17.00;90.50;;;;;;4988491;28;20434;-74
2022/07/22 04:04:29;;;;;;;10.20;9.20;;;16.90;90.00;;;;;;4988074;28;20824;-74
2022/07/22 04:06:56;;;;;;;10.02;9.02;;;16.90;90.30;;;;;;4987983;28;20800;-74
2022/07/22 04:09:23;;;;;;;9.40;8.57;;;16.90;90.40;;;;;;4988717;28;20425;-74
2022/07/22 04:11:51;;;;;;;10.18;9.27;;;16.90;90.30;;;;;;4987928;28;20925;-74
2022/07/22 04:14:18;;;;;;;10.13;9.13;;;16.80;90.60;;;;;;4988464;28;20509;-74
2022/07/22 04:16:45;;;;;;;10.30;9.30;;;16.90;90.30;;;;;;4988282;28;20974;-73
2022/07/22 04:19:12;;;;;;;10.32;9.32;;;16.90;90.50;;;;;;4988774;28;20509;-74
2022/07/22 04:21:39;;;;;;;10.10;9.10;;;17.00;90.40;;;;;;4987501;28;20491;-73
2022/07/22 04:24:07;;;;;;;10.30;9.40;;;16.90;90.60;;;;;;4988326;28;20872;-74
2022/07/22 04:26:36;;;;;;;10.10;9.10;;;16.90;90.60;;;;;;4988254;28;20858;-74
2022/07/22 04:29:04;;;;;;;9.70;8.80;;;16.90;90.80;;;;;;4988722;28;20434;-74
2022/07/22 04:31:31;;;;;;;10.30;9.40;;;17.00;90.60;;;;;;4987710;28;20905;-73
2022/07/22 04:33:58;;;;;;;9.30;8.50;;;17.00;90.50;;;;;;4988506;28;20419;-74
2022/07/22 04:36:26;;;;;;;10.18;9.18;;;17.00;90.50;;;;;;4987484;28;20422;-74
2022/07/22 04:38:52;;;;;;;10.73;9.73;;;16.90;90.10;;;;;;4988676;28;20486;-74
2022/07/22 04:41:19;;;;;;;10.00;9.10;;;16.90;90.30;;;;;;4988040;28;20506;-74
2022/07/22 04:43:46;;;;;;;9.10;8.33;;;16.90;90.30;;;;;;4988539;28;20422;-73
2022/07/22 04:46:14;;;;;;;9.27;8.47;;;16.90;90.40;;;;;;4987945;28;20445;-74
2022/07/22 04:48:41;;;;;;;10.07;9.10;;;16.90;90.70;;;;;;4988194;28;20422;-74
2022/07/22 04:51:08;;;;;;;9.55;8.60;;;16.90;90.80;;;;;;4987202;28;20438;-73
2022/07/22 04:53:34;;;;;;;11.15;8.80;;;16.90;90.70;;;;;;4988120;28;20441;-73
2022/07/22 04:56:01;;;;;;;10.80;9.80;;;17.00;90.10;;;;;;4987772;28;20426;-74
2022/07/22 04:58:28;;;;;;;10.60;9.60;;;16.90;90.20;;;;;;4988209;28;20948;-75
2022/07/22 05:00:55;;;;;;;10.48;9.48;;;16.90;90.10;;;;;;4987555;28;20425;-74
2022/07/22 05:03:24;;;;;;;10.50;9.50;;;16.80;90.50;;;;;;4988418;28;20510;-74
2022/07/22 05:05:51;;;;;;;9.63;8.68;;;16.80;90.90;;;;;;4986887;28;20430;-74
2022/07/22 05:08:18;;;;;;;9.43;8.52;;;16.90;91.00;;;;;;4988059;28;20414;-74
2022/07/22 05:10:44;;;;;;;10.63;9.63;;;16.90;91.00;;;;;;4987607;28;20946;-74
2022/07/22 05:13:13;;;;;;;10.20;9.20;;;17.00;91.20;;;;;;4988050;28;20426;-74
2022/07/22 05:15:40;;;;;;;9.70;8.80;;;17.00;91.10;;;;;;4988862;28;20433;-74
2022/07/22 05:18:07;;;;;;;9.82;8.93;;;17.00;91.10;;;;;;4992094;28;20454;-74
2022/07/22 05:20:36;;;;;;;8.98;8.18;;;17.10;90.90;;;;;;4990434;28;20426;-74
2022/07/22 05:23:03;;;;;;;9.60;8.65;;;17.00;91.10;;;;;;4992070;28;20754;-74
2022/07/22 05:25:30;;;;;;;10.77;9.88;;;17.10;91.10;;;;;;4991096;28;20433;-74
2022/07/22 05:27:57;;;;;;;11.40;10.50;;;17.10;91.00;;;;;;4991418;28;20513;-75
2022/07/22 05:30:25;;;;;;;11.77;10.60;;;17.10;90.80;;;;;;4991016;28;20480;-74
2022/07/22 05:32:52;;;;;;;12.05;11.05;;;17.10;91.10;;;;;;4991814;28;20453;-74
2022/07/22 05:35:19;;;;;;;12.50;11.30;;;17.10;91.20;;;;;;4990445;28;20421;-74
2022/07/22 05:37:47;;;;;;;11.88;10.88;;;17.20;90.70;;;;;;4991810;28;20437;-74
2022/07/22 05:40:14;;;;;;;11.77;10.43;;;17.10;90.20;;;;;;4990918;28;20512;-74
2022/07/22 05:42:41;;;;;;;11.20;10.30;;;17.10;90.40;;;;;;4992466;28;20514;-74
2022/07/22 05:45:08;;;;;;;14.55;13.35;;;17.10;89.60;;;;;;4992471;28;20430;-74
2022/07/22 05:47:35;;;;;;;12.70;11.60;;;17.10;89.30;;;;;;4991850;28;20427;-75
2022/07/22 05:50:02;;;;;;;12.60;11.52;;;17.00;89.60;;;;;;4998092;28;20533;-74
2022/07/22 05:52:29;;;;;;;12.43;11.23;;;17.00;90.40;;;;;;4997739;28;20422;-73
2022/07/22 05:54:59;;;;;;;12.30;11.10;;;17.10;90.70;;;;;;4996916;28;20531;-73
2022/07/22 05:57:26;;;;;;;11.07;10.13;;;17.10;90.80;;;;;;4996332;28;20462;-74
2022/07/22 05:59:53;;;;;;;10.40;9.40;;;17.20;90.80;;;;;;4995532;28;20513;-73
2022/07/22 06:02:20;;;;;;;10.98;9.95;;;17.20;90.60;;;;;;4994377;28;20513;-74
2022/07/22 06:04:47;;;;;;;11.48;10.38;;;17.30;90.40;;;;;;4994294;28;20422;-74
2022/07/22 06:07:14;;;;;;;10.50;9.35;;;17.30;90.50;;;;;;4990607;28;20426;-73
2022/07/22 06:09:41;;;;;;;9.90;9.00;;;17.40;90.50;;;;;;4991175;28;20431;-74
2022/07/22 06:12:09;;;;;;;9.30;8.45;;;17.30;90.10;;;;;;4990687;28;20796;-74
2022/07/22 06:14:37;;;;;;;10.23;9.23;;;17.40;89.90;;;;;;4990606;28;20426;-74
2022/07/22 06:17:04;;;;;;;11.05;9.30;;;17.40;89.60;;;;;;4990495;28;20425;-74
2022/07/22 06:19:31;;;;;;;10.20;9.20;;;17.40;89.20;;;;;;4990568;28;20812;-73
2022/07/22 06:21:58;;;;;;;10.52;9.43;;;17.50;88.70;;;;;;4989957;28;20422;-73
2022/07/22 06:24:25;;;;;;;10.00;9.10;;;17.40;89.00;;;;;;4990941;28;20425;-73
2022/07/22 06:26:52;;;;;;;10.13;8.80;;;17.40;89.10;;;;;;4989759;28;20422;-73
2022/07/22 06:29:20;;;;;;;9.82;8.82;;;17.50;89.20;;;;;;4990311;28;20428;-74
2022/07/22 06:31:47;;;;;;;9.70;8.90;;;17.50;88.40;;;;;;4989912;28;20711;-73
2022/07/22 06:34:14;;;;;;;10.90;9.90;;;17.40;88.70;;;;;;4990557;28;20485;-73
2022/07/22 06:36:41;;;;;;;10.50;9.60;;;17.40;88.20;;;;;;4989397;28;20418;-73
2022/07/22 06:39:08;;;;;;;11.65;9.90;;;17.40;87.90;;;;;;4989970;28;20430;-73
2022/07/22 06:41:34;;;;;;;11.02;10.02;;;17.40;88.10;;;;;;4989739;28;20486;-73
2022/07/22 06:44:01;;;;;;;11.68;10.57;;;17.40;88.70;;;;;;4990045;28;20418;-74
2022/07/22 06:46:30;;;;;;;11.40;10.30;;;17.40;89.00;;;;;;4989930;28;20422;-65
2022/07/22 06:48:57;;;;;;;16.80;15.30;;;17.40;89.80;;;;;;4989969;28;20527;-65
2022/07/22 06:51:23;;;;;;;12.77;11.68;;;17.40;90.00;;;;;;4988615;28;20532;-65
2022/07/22 06:53:50;;;;;;;12.23;11.23;;;17.80;88.90;;;;;;4989909;28;20430;-65
2022/07/22 06:56:17;;;;;;;13.10;12.00;;;17.90;87.00;;;;;;4989774;28;20437;-65
2022/07/22 06:58:44;;;;;;;12.20;11.10;;;18.00;87.20;;;;;;4989898;28;20438;-65
2022/07/22 07:01:11;;;;;;;10.45;9.65;;;17.90;87.80;;;;;;4987499;28;20859;-64
2022/07/22 07:03:39;;;;;;;9.50;8.70;;;17.90;87.30;;;;;;4989979;28;20434;-64
2022/07/22 07:06:08;;;;;;;9.80;9.00;;;17.90;87.10;;;;;;4988025;28;20436;-64
2022/07/22 07:08:35;;;;;;;9.32;8.63;;;17.90;86.70;;;;;;4989475;28;20422;-64
2022/07/22 07:11:02;;;;;;;8.80;8.10;;;17.90;86.40;;;;;;4989043;28;20526;-64
2022/07/22 07:13:28;;;;;;;8.10;7.30;;;17.90;86.30;;;;;;4989412;28;20430;-64
2022/07/22 07:15:55;;;;;;;7.43;6.72;;;18.00;85.80;;;;;;5026893;22;20443;-70
2022/07/22 07:18:22;;;;;;;6.90;6.30;;;18.00;85.40;;;;;;5021059;28;20438;-71
2022/07/22 07:20:50;;;;;;;7.22;6.53;;;18.10;84.80;;;;;;5027768;28;20437;-71
2022/07/22 07:23:17;;;;;;;11.13;10.13;;;18.10;84.80;;;;;;5029293;28;20438;-70
2022/07/22 07:25:44;;;;;;;7.47;6.57;;;18.10;84.50;;;;;;5029590;28;20418;-70
2022/07/22 07:28:11;;;;;;;7.13;6.32;;;18.10;84.60;;;;;;5030577;28;20419;-70
2022/07/22 07:30:37;;;;;;;7.00;6.40;;;18.20;83.90;;;;;;5029969;28;20427;-69
2022/07/22 07:33:04;;;;;;;6.60;6.00;;;18.10;84.00;;;;;;5030426;28;20419;-70
2022/07/22 07:35:31;;;;;;;6.80;5.97;;;18.10;83.90;;;;;;5033776;28;20438;-70
2022/07/22 07:37:59;;;;;;;6.43;5.82;;;18.10;84.00;;;;;;5032606;28;20423;-71
2022/07/22 07:40:26;;;;;;;8.55;7.75;;;18.20;83.50;;;;;;5030253;28;20418;-71
2022/07/22 07:42:54;;;;;;;6.10;5.50;;;18.20;83.80;;;;;;5031363;28;20521;-71
2022/07/22 07:45:21;;;;;;;7.28;6.53;;;18.20;83.30;;;;;;5031752;28;20430;-71
2022/07/22 07:47:47;;;;;;;6.30;5.63;;;18.20;83.30;;;;;;5032422;28;20411;-71
2022/07/22 07:50:14;;;;;;;6.03;5.22;;;18.20;83.40;;;;;;5030746;28;20426;-70
2022/07/22 07:52:44;;;;;;;6.43;5.82;;;18.30;82.90;;;;;;5031591;28;20437;-70
2022/07/22 07:55:12;;;;;;;7.03;5.82;;;18.20;82.70;;;;;;5029690;28;20418;-71
2022/07/22 07:57:39;;;;;;;5.40;4.90;;;18.30;83.10;;;;;;5030042;28;20548;-70
2022/07/22 08:00:10;;;;;;;5.40;4.90;;;18.30;82.60;;;;;;5028715;28;20431;-71
2022/07/22 08:02:37;;;;;;;6.00;5.40;;;18.40;82.50;;;;;;5003873;28;20426;-70
2022/07/22 08:05:05;;;;;;;5.93;5.30;;;18.40;81.90;;;;;;4988533;28;20422;-70
2022/07/22 08:07:32;;;;;;;7.38;5.82;;;18.50;82.20;;;;;;4989384;28;20437;-70
2022/07/22 08:09:59;;;;;;;7.00;6.40;;;18.50;81.30;;;;;;4991071;28;20422;-71
2022/07/22 08:12:27;;;;;;;6.80;6.10;;;18.40;81.50;;;;;;4990582;28;20437;-71
2022/07/22 08:14:54;;;;;;;6.32;5.40;;;18.40;82.70;;;;;;4989775;28;20422;-70
2022/07/22 08:17:20;;;;;;;6.68;6.10;;;18.50;82.50;;;;;;4989757;28;20426;-72
2022/07/22 08:19:47;;;;;;;6.85;6.20;;;18.50;82.60;;;;;;4989316;28;20444;-70
2022/07/22 08:22:14;;;;;;;7.77;7.07;;;18.50;81.50;;;;;;4988934;28;20517;-71
2022/07/22 08:24:41;;;;;;;8.32;7.63;;;18.50;81.70;;;;;;4989842;28;20429;-71
2022/07/22 08:27:08;;;;;;;9.52;8.52;;;18.60;82.10;;;;;;4989543;28;20426;-71
2022/07/22 08:29:36;;;;;;;9.38;8.60;;;18.60;82.50;;;;;;4989821;28;20441;-71
2022/07/22 08:32:02;;;;;;;9.00;8.30;;;18.50;81.80;;;;;;4989699;28;20433;-71
2022/07/22 08:34:29;;;;;;;7.78;7.07;;;18.60;82.50;;;;;;4989776;28;20449;-71
2022/07/22 08:36:56;;;;;;;8.10;7.40;;;18.60;82.40;;;;;;4988475;28;20960;-70
2022/07/22 08:39:23;;;;;;;8.25;7.65;;;18.70;81.50;;;;;;4989467;28;20537;-70
2022/07/22 08:41:50;;;;;;;9.50;8.70;;;18.70;80.80;;;;;;4989440;28;20510;-70
2022/07/22 08:44:17;;;;;;;9.85;9.07;;;18.80;81.40;;;;;;4989880;28;20422;-70
2022/07/22 08:46:46;;;;;;;9.32;8.45;;;18.90;80.40;;;;;;4989178;28;20433;-71
2022/07/22 08:49:15;;;;;;;9.20;8.30;;;18.90;79.90;;;;;;4989715;28;20437;-71
2022/07/22 08:51:42;;;;;;;9.30;8.40;;;19.00;80.80;;;;;;4991635;28;20421;-70
2022/07/22 08:54:09;;;;;;;8.63;7.60;;;19.10;80.00;;;;;;4993541;28;20503;-71
2022/07/22 08:56:37;;;;;;;8.20;7.50;;;19.20;80.20;;;;;;4993457;28;20422;-71
2022/07/22 08:59:04;;;;;;;8.60;7.90;;;19.30;79.50;;;;;;4993623;28;20915;-70
2022/07/22 09:01:31;;;;;;;10.47;9.47;;;19.30;78.60;;;;;;4992914;28;20426;-71
2022/07/22 09:04:00;;;;;;;8.68;7.88;;;19.30;79.00;;;;;;4993578;28;20491;-71
2022/07/22 09:06:33;;;;;;;8.40;7.60;;;19.40;78.90;;;;;;4992205;28;20889;-71
2022/07/22 09:09:01;;;;;;;9.07;8.27;;;19.50;78.80;;;;;;4993306;28;20426;-71
2022/07/22 09:11:30;;;;;;;8.55;7.75;;;19.50;78.90;;;;;;4992845;28;20414;-70
2022/07/22 09:13:57;;;;;;;8.17;7.37;;;19.60;78.50;;;;;;4992815;28;20904;-70
2022/07/22 09:16:44;;;;;;;8.18;7.47;;;19.70;78.00;;;;;;4993097;28;20982;-70
2022/07/22 09:19:13;;;;;;;9.05;8.35;;;19.70;77.10;;;;;;4993561;28;20426;-70
2022/07/22 09:21:42;;;;;;;8.90;8.10;;;19.80;76.10;;;;;;4992228;28;20422;-71
2022/07/22 09:24:25;;;;;;;9.23;8.45;;;19.90;74.40;;;;;;4993844;28;20422;-71
2022/07/22 09:26:56;;;;;;;8.77;8.07;;;20.00;74.60;;;;;;4994032;28;20429;-71
2022/07/22 09:29:23;;;;;;;8.57;7.88;;;20.20;74.20;;;;;;4993897;28;20781;-70
2022/07/22 09:31:52;;;;;;;8.75;8.05;;;20.40;72.80;;;;;;4992780;28;20426;-70
2022/07/22 09:34:28;;;;;;;8.10;7.50;;;20.50;71.90;;;;;;4993107;28;20455;-70
2022/07/22 09:36:56;;;;;;;8.60;7.90;;;20.60;72.50;;;;;;4992436;28;20489;-71
2022/07/22 09:39:27;;;;;;;8.70;8.00;;;20.80;70.00;;;;;;4992990;28;20434;-71
2022/07/22 09:42:01;;;;;;;9.30;8.40;;;21.00;70.80;;;;;;4992859;28;20414;-71
2022/07/22 09:44:28;;;;;;;8.48;7.88;;;21.10;70.00;;;;;;4993435;28;20876;-71
2022/07/22 09:46:55;;;;;;;8.97;8.27;;;21.10;69.20;;;;;;4993455;28;20418;-71
2022/07/22 09:49:33;;;;;;;8.38;7.68;;;21.20;68.50;;;;;;4994206;28;20418;-70
2022/07/22 09:52:01;;;;;;;8.50;7.80;;;21.40;69.20;;;;;;4991604;28;20426;-71
2022/07/22 09:54:30;;;;;;;8.20;7.50;;;21.60;69.60;;;;;;4993180;28;20422;-71
2022/07/22 09:56:57;;;;;;;8.37;7.80;;;21.90;67.70;;;;;;4992812;28;20426;-71
2022/07/22 09:59:24;;;;;;;8.50;7.80;;;22.20;63.90;;;;;;4992514;28;20751;-70
2022/07/22 10:01:55;;;;;;;8.70;8.00;;;22.30;62.70;;;;;;4990661;28;20805;-71
2022/07/22 10:04:24;;;;;;;8.17;7.50;;;22.50;62.10;;;;;;4996672;28;20422;-71
2022/07/22 10:06:55;;;;;;;8.13;7.53;;;22.60;62.00;;;;;;4992745;28;20422;-71
2022/07/22 10:09:22;;;;;;;9.30;8.60;;;22.70;62.60;;;;;;4993128;28;20433;-71
2022/07/22 10:11:50;;;;;;;9.65;8.95;;;22.70;60.00;;;;;;4991652;28;20414;-72
2022/07/22 10:14:19;;;;;;;9.00;8.37;;;22.60;59.90;;;;;;4991891;28;20426;-71
2022/07/22 10:16:46;;;;;;;9.93;9.15;;;22.40;61.70;;;;;;4993256;28;20426;-71
2022/07/22 10:19:14;;;;;;;9.63;8.93;;;22.40;62.20;;;;;;4993357;28;20430;-70
2022/07/22 10:21:41;;;;;;;8.60;7.90;;;22.50;62.70;;;;;;4990269;28;20520;-71
2022/07/22 10:24:11;;;;;;;9.40;8.60;;;22.50;62.30;;;;;;4991366;28;20892;-67
2022/07/22 10:26:49;;;;;;;9.00;8.30;;;22.40;64.20;;;;;;4992477;28;20857;-79
2022/07/22 10:29:26;;;;;;;8.93;8.32;;;22.30;64.90;;;;;;4994114;28;20418;-79
2022/07/22 10:32:24;;;;;;;10.30;9.50;;;22.30;64.10;;;;;;4996664;28;20430;-80
2022/07/22 10:35:24;;;;;;;8.85;8.20;;;22.10;64.30;;;;;;4993516;28;20460;-79
2022/07/22 10:38:04;;;;;;;7.90;7.30;;;22.20;65.70;;;;;;4993266;28;20873;-77
2022/07/22 10:40:45;;;;;;;8.02;7.43;;;22.10;66.50;;;;;;4992302;28;20426;-77
2022/07/22 10:43:13;;;;;;;7.88;7.20;;;22.20;66.10;;;;;;4992863;28;20438;-78
2022/07/22 10:45:45;;;;;;;8.10;7.40;;;22.30;65.30;;;;;;4991782;28;20471;-81
2022/07/22 10:48:13;;;;;;;8.45;7.72;;;22.40;65.20;;;;;;4992194;28;20495;-80
2022/07/22 10:50:43;;;;;;;7.60;7.10;;;22.50;65.50;;;;;;4991591;28;20418;-78
2022/07/22 10:53:11;;;;;;;7.82;7.13;;;22.50;67.10;;;;;;4993097;28;20430;-80
2022/07/22 10:55:58;;;;;;;7.70;7.10;;;22.70;65.60;;;;;;4992814;28;20439;-78
2022/07/22 10:58:52;;;;;;;7.80;7.20;;;22.70;64.80;;;;;;4993902;28;20473;-79
2022/07/22 11:01:22;;;;;;;7.88;7.28;;;22.80;65.10;;;;;;4992813;28;20469;-79
2022/07/22 11:03:50;;;;;;;7.43;6.82;;;22.80;64.00;;;;;;4993329;28;20436;-78
2022/07/22 11:06:27;;;;;;;7.30;6.80;;;22.80;64.10;;;;;;4992142;28;20509;-79
2022/07/22 11:08:56;;;;;;;7.70;7.10;;;22.90;63.90;;;;;;4992054;28;20432;-78
2022/07/22 11:11:37;;;;;;;7.78;7.18;;;23.00;63.20;;;;;;4990838;28;20430;-79
2022/07/22 11:14:11;;;;;;;7.93;7.32;;;23.10;64.10;;;;;;4992802;28;20430;-77
2022/07/22 11:16:38;;;;;;;8.07;7.28;;;23.30;63.00;;;;;;4992205;28;20518;-78
2022/07/22 11:19:05;;;;;;;8.05;7.40;;;23.30;62.80;;;;;;4992356;28;20481;-78
2022/07/22 11:21:34;;;;;;;8.00;7.40;;;23.50;61.70;;;;;;4990577;28;20410;-80
2022/07/22 11:24:02;;;;;;;7.90;7.30;;;23.70;61.30;;;;;;4992071;28;20419;-79
2022/07/22 11:26:38;;;;;;;8.45;7.75;;;24.00;59.50;;;;;;4991516;28;20536;-78
2022/07/22 11:29:05;;;;;;;7.97;7.38;;;24.20;59.10;;;;;;4992355;28;20860;-80
2022/07/22 11:31:32;;;;;;;8.02;7.32;;;24.40;58.00;;;;;;4991525;28;20422;-78
2022/07/22 11:34:09;;;;;;;8.10;7.50;;;24.60;57.80;;;;;;4991634;28;20432;-80
2022/07/22 11:36:37;;;;;;;8.73;8.13;;;24.60;56.90;;;;;;4990317;28;20426;-79
2022/07/22 11:39:04;;;;;;;8.48;7.78;;;24.50;56.20;;;;;;4991243;28;20975;-78
2022/07/22 11:41:32;;;;;;;7.38;6.88;;;24.50;57.50;;;;;;4991026;28;20419;-77
2022/07/22 11:44:00;;;;;;;7.60;7.00;;;24.60;58.10;;;;;;4991086;28;20418;-80
2022/07/22 11:46:28;;;;;;;7.30;6.80;;;24.80;56.80;;;;;;4991460;28;20422;-78
2022/07/22 11:48:56;;;;;;;7.80;7.20;;;24.90;56.30;;;;;;4991873;28;20913;-80
2022/07/22 11:51:29;;;;;;;8.40;7.80;;;25.00;54.30;;;;;;4989346;28;20436;-79
2022/07/22 11:53:56;;;;;;;7.50;7.00;;;25.00;53.40;;;;;;4990584;28;20417;-80
2022/07/22 11:56:22;;;;;;;7.90;7.35;;;25.10;55.20;;;;;;4990931;28;20440;-79
2022/07/22 11:58:54;;;;;;;7.90;7.30;;;25.10;54.20;;;;;;4991671;28;20749;-79
2022/07/22 12:01:23;;;;;;;8.20;7.60;;;25.20;54.20;;;;;;4990084;28;20485;-79
2022/07/22 12:03:52;;;;;;;8.68;8.00;;;25.20;54.00;;;;;;4990799;28;20425;-79
2022/07/22 12:06:20;;;;;;;8.57;7.88;;;25.30;54.00;;;;;;4989968;28;20525;-80
2022/07/22 12:08:50;;;;;;;8.57;7.97;;;25.20;54.30;;;;;;4991196;28;20426;-79
2022/07/22 12:11:18;;;;;;;8.70;8.10;;;25.10;54.10;;;;;;4989528;28;20477;-77
2022/07/22 12:13:48;;;;;;;8.63;8.02;;;25.00;53.90;;;;;;4989937;28;20422;-79
2022/07/22 12:16:26;;;;;;;8.50;7.90;;;25.10;54.50;;;;;;4989405;28;20766;-79
2022/07/22 12:18:58;;;;;;;8.60;8.00;;;25.40;53.60;;;;;;4990331;28;20434;-78
2022/07/22 12:21:26;;;;;;;8.70;7.90;;;25.80;53.10;;;;;;4988586;28;20943;-79
2022/07/22 12:23:56;;;;;;;8.80;8.20;;;26.00;52.00;;;;;;5002880;28;20433;-81
2022/07/22 12:26:39;;;;;;;8.15;7.45;;;26.20;51.70;;;;;;4992908;28;20473;-78
2022/07/22 12:29:17;;;;;;;8.18;7.57;;;26.40;51.00;;;;;;4989962;28;20418;-79
2022/07/22 12:31:46;;;;;;;7.70;7.20;;;26.50;50.00;;;;;;4988867;28;20425;-80
2022/07/22 12:34:13;;;;;;;7.90;7.30;;;26.40;49.90;;;;;;4989674;28;20889;-80
2022/07/22 12:36:44;;;;;;;8.20;7.60;;;26.40;51.60;;;;;;4988716;28;20936;-77
2022/07/22 12:39:13;;;;;;;8.20;7.60;;;26.40;50.90;;;;;;4989422;28;20426;-79
2022/07/22 12:41:50;;;;;;;8.30;7.70;;;26.40;51.00;;;;;;4993859;28;20422;-77
2022/07/22 12:44:21;;;;;;;9.57;8.80;;;26.50;50.40;;;;;;5012119;28;20478;-78
2022/07/22 12:46:52;;;;;;;9.57;8.88;;;26.50;49.30;;;;;;5012899;28;21501;-76
2022/07/22 12:49:21;;;;;;;10.30;9.30;;;26.60;49.50;;;;;;5013112;28;20433;-79